Latest Weather Observations for Julia Creek

IDQ60801

Issued at 9:02 am EST Sunday 21 December 2014 (issued every 30 minutes, with the page automatically refreshed every 10 minutes)

About weather observations | Map of weather stations | Latest weather observations for QLD | Other Formats
Station Details ID: 029058 Name: JULIA CREEK AIRPORT Lat: -20.67 Lon: 141.72 Height: 122.5 m
Data from the previous 72 hours. | See also: Recent months at Julia Creek
Date/Time
EST
Temp
°C
App
Temp
°C
Dew
Point
Rel
Hum
%
Delta-T
°C
Wind Press
QNH
hPa
Press
MSL
hPa
Rain
since 9 am
mm
Dir
 
Spd
km/h
Gust
km/h
Spd
kts
Gust
kts
21/09:00am 34.1 33.6 19.0 41 10.0 NE 20 28 11 15 1010.4 1009.5 0.0
21/08:30am 32.5 31.6 19.0 44 8.9 NNE 22 30 12 16 1010.2 1009.3 0.0
21/08:00am 32.8 32.0 19.3 45 8.9 NE 22 30 12 16 1009.9 1009.0 0.0
21/07:30am 31.3 32.1 17.2 42 9.0 ENE 9 19 5 10 1009.6 1008.6 0.0
21/07:00am 28.2 27.2 13.3 40 8.9 ESE 11 13 6 7 1009.4 1008.4 0.0
21/06:30am 26.4 25.6 12.8 43 8.0 E 9 11 5 6 1008.9 1007.9 0.0
21/06:00am 25.1 23.9 11.6 42 7.7 ESE 9 11 5 6 1008.4 1007.4 0.0
21/05:30am 25.4 23.9 11.9 43 7.8 E 11 11 6 6 1007.9 1006.9 0.0
21/05:00am 25.4 23.7 11.2 41 8.1 ESE 11 13 6 7 1007.7 1006.7 0.0
21/04:30am 28.2 27.4 12.9 38 9.0 ENE 9 11 5 6 1007.5 1006.5 0.0
21/04:00am 29.1 27.7 12.1 35 10.0 ENE 11 17 6 9 1007.3 1006.3 0.0
21/03:30am 29.5 26.9 10.6 31 10.8 ENE 15 20 8 11 1007.3 1006.3 0.0
21/03:00am 30.5 26.9 10.5 29 11.5 E 20 28 11 15 1007.2 1006.2 0.0
21/02:30am 30.5 26.7 9.9 28 11.7 ENE 20 28 11 15 1007.4 1006.4 0.0
21/02:00am 30.8 26.2 9.6 27 12.0 E 24 32 13 17 1007.5 1006.5 0.0
21/01:30am 30.7 26.5 9.6 27 11.9 E 22 32 12 17 1007.7 1006.7 0.0
21/01:00am 30.7 26.7 9.0 26 12.2 E 20 28 11 15 1008.1 1007.1 0.0
21/12:30am 30.2 26.8 9.1 27 11.8 ESE 17 20 9 11 1008.5 1007.5 0.0
21/12:00am 30.2 26.8 9.1 27 11.8 ESE 17 20 9 11 1008.7 1007.7 0.0
 
Date/Time
EST
Temp
°C
App
Temp
°C
Dew
Point
Rel
Hum
%
Delta-T
°C
Wind Press
QNH
hPa
Press
MSL
hPa
Rain
since 9 am
mm
Dir
 
Spd
km/h
Gust
km/h
Spd
kts
Gust
kts
20/11:30pm 30.9 27.1 9.2 26 12.2 ESE 19 22 10 12 1008.8 1007.8 0.0
20/11:00pm 32.3 28.3 9.2 24 13.1 ESE 20 26 11 14 1008.6 1007.6 0.0
20/10:30pm 30.4 27.3 8.7 26 12.1 SE 15 19 8 10 1008.4 1007.4 0.0
20/10:00pm 29.1 26.5 9.3 29 11.1 S 13 15 7 8 1008.1 1007.1 0.0
20/09:30pm 29.7 27.7 10.3 30 11.1 SSE 11 11 6 6 1007.9 1006.9 0.0
20/09:00pm 30.9 29.2 9.7 27 12.1 SSE 9 9 5 5 1007.6 1006.6 0.0
20/08:30pm 32.4 31.1 9.9 25 12.9 SE 7 9 4 5 1007.5 1006.5 0.0
20/08:00pm 33.5 31.7 9.5 23 13.8 SE 9 9 5 5 1007.3 1006.3 0.0
20/07:30pm 34.2 32.2 8.8 21 14.5 ESE 9 13 5 7 1007.2 1006.2 0.0
20/07:00pm 36.7 33.7 7.7 17 16.4 SE 13 15 7 8 1007.0 1006.0 0.0
20/06:30pm 37.7 34.5 8.5 17 16.8 SE 15 22 8 12 1006.7 1005.7 0.0
20/06:00pm 38.1 34.8 7.9 16 17.3 SSE 15 22 8 12 1006.5 1005.5 0.0
20/05:30pm 38.5 36.2 9.1 17 17.1 SE 11 19 6 10 1006.3 1005.3 0.0
20/05:00pm 38.5 36.2 9.1 17 17.2 ESE 11 20 6 11 1006.2 1005.2 0.0
20/04:30pm 38.9 35.9 9.4 17 17.3 S 15 28 8 15 1006.3 1005.3 0.0
20/04:00pm 39.2 36.7 9.7 17 17.4 S 13 28 7 15 1006.4 1005.4 0.0
20/03:30pm 38.7 36.3 10.1 18 16.9 ESE 13 24 7 13 1006.8 1005.8 0.0
20/03:00pm 39.1 37.0 11.3 19 16.8 ESE 13 22 7 12 1007.2 1006.2 0.0
20/02:30pm 38.4 37.5 11.5 20 16.2 ESE 7 19 4 10 1007.7 1006.7 0.0
20/02:00pm 38.2 35.0 11.3 20 16.2 E 19 72 10 39 1008.2 1007.2 0.0
20/01:30pm 38.4 35.4 10.7 19 16.5 SE 17 28 9 15 1008.6 1007.6 0.0
20/01:00pm 38.2 36.7 12.0 21 15.9 ESE 11 30 6 16 1009.1 1008.1 0.0
20/12:30pm 37.7 35.4 11.6 21 15.7 SE 15 28 8 15 1009.8 1008.9 0.0
20/12:00pm 37.5 34.0 12.2 22 15.4 ESE 22 33 12 18 1010.4 1009.5 0.0
20/11:30am 36.6 34.1 14.0 26 14.0 E 20 33 11 18 1010.8 1009.9 0.0
20/11:00am 36.4 33.5 16.0 29 13.0 E 26 39 14 21 1011.1 1010.2 0.0
20/10:30am 35.6 34.3 16.8 32 12.1 E 19 37 10 20 1011.5 1010.6 0.0
20/10:00am 35.3 33.7 17.5 34 11.5 E 22 32 12 17 1011.6 1010.7 0.0
20/09:30am 34.3 33.4 18.3 38 10.5 ESE 20 35 11 19 1011.8 1010.9 0.0
20/09:00am 33.3 33.6 19.7 44 9.0 E 17 26 9 14 1011.9 1011.0 0.0
20/08:30am 32.1 33.7 20.7 51 7.6 E 13 19 7 10 1012.0 1011.1 0.0
20/08:00am 30.9 31.4 20.8 55 6.8 ESE 19 24 10 13 1011.9 1011.0 0.0
20/07:30am 28.6 28.5 19.5 58 5.9 ESE 19 26 10 14 1011.7 1010.8 0.0
20/07:00am 27.1 26.7 18.9 61 5.3 SE 19 24 10 13 1011.3 1010.4 0.0
20/06:30am 25.3 25.3 18.0 64 4.6 SE 15 19 8 10 1010.8 1009.9 0.0
20/06:00am 23.9 23.6 17.4 67 4.1 SE 15 17 8 9 1010.2 1009.3 0.0
20/05:30am 23.0 23.7 17.0 69 3.7 SE 9 11 5 6 1009.8 1008.9 0.0
20/05:00am 23.6 23.7 16.4 64 4.4 SE 11 15 6 8 1009.4 1008.4 0.0
20/04:30am 24.1 24.2 16.6 63 4.6 SSE 11 13 6 7 1009.4 1008.4 0.0
20/04:00am 24.5 24.3 16.7 61 4.8 SSE 13 15 7 8 1009.2 1008.2 0.0
20/03:30am 25.4 24.7 17.3 61 5.1 SSE 17 19 9 10 1009.0 1008.0 0.0
20/03:00am 25.4 24.4 17.6 62 4.9 SSE 19 24 10 13 1009.2 1008.2 0.0
20/02:30am 24.2 24.8 17.7 67 4.1 SSE 11 13 6 7 1009.1 1008.1 0.0
20/02:00am 24.6 25.2 17.6 65 4.4 SSE 11 11 6 6 1009.1 1008.1 0.0
20/01:30am 25.6 26.6 17.8 62 4.9 SE 9 11 5 6 1009.2 1008.2 0.0
20/01:00am 26.4 27.5 18.0 60 5.3 SE 9 9 5 5 1009.4 1008.4 0.0
20/12:30am 27.7 28.5 18.1 56 6.1 ESE 11 13 6 7 1009.9 1009.0 0.0
20/12:00am 27.5 28.3 17.4 54 6.4 ESE 9 11 5 6 1010.3 1009.4 0.0
 
Date/Time
EST
Temp
°C
App
Temp
°C
Dew
Point
Rel
Hum
%
Delta-T
°C
Wind Press
QNH
hPa
Press
MSL
hPa
Rain
since 9 am
mm
Dir
 
Spd
km/h
Gust
km/h
Spd
kts
Gust
kts
19/11:30pm 28.9 28.9 17.1 49 7.5 ESE 13 13 7 7 1010.5 1009.6 0.0
19/11:00pm 29.7 29.5 16.8 45 8.1 SE 13 17 7 9 1010.6 1009.7 0.0
19/10:30pm 29.6 29.7 17.4 47 7.8 SSE 13 15 7 8 1010.4 1009.5 0.0
19/10:00pm 29.6 30.0 18.1 50 7.4 S 13 15 7 8 1010.1 1009.2 0.0
19/09:30pm 29.7 30.7 17.8 48 7.6 S 9 11 5 6 1009.9 1009.0 0.0
19/09:00pm 31.0 32.4 17.7 45 8.5 S 7 9 4 5 1009.8 1008.9 0.0
19/08:30pm 31.0 31.8 17.3 43 8.7 SSW 9 9 5 5 1009.5 1008.5 0.0
19/08:00pm 32.1 32.3 16.8 40 9.7 SSW 11 11 6 6 1009.3 1008.3 0.0
19/07:30pm 33.8 33.6 16.6 35 11.0 S 13 17 7 9 1009.0 1008.0 0.0
19/07:00pm 35.0 33.5 16.3 32 11.9 S 19 24 10 13 1008.6 1007.6 0.0
19/06:30pm 36.2 34.6 16.4 31 12.7 S 20 30 11 16 1008.3 1007.3 0.0
19/06:00pm 37.0 37.3 16.0 28 13.4 ESE 9 17 5 9 1008.1 1007.1 0.0
19/05:30pm 36.9 36.8 17.0 31 12.9 ESE 13 19 7 10 1008.1 1007.1 0.0
19/05:00pm 36.0 36.2 16.7 31 12.4 SE 11 19 6 10 1008.1 1007.1 0.0
19/04:30pm 36.0 36.4 17.2 33 12.2 E 11 20 6 11 1008.2 1007.2 0.0
19/04:00pm 36.8 37.1 17.9 33 12.4 SE 13 19 7 10 1008.6 1007.6 0.0
19/03:30pm 37.5 37.1 18.0 31 12.8 ESE 17 26 9 14 1008.9 1007.9 0.0
19/03:00pm 35.6 34.9 16.4 32 12.3 ESE 15 28 8 15 1009.2 1008.2 0.0
19/02:30pm 35.8 36.3 17.5 34 11.9 E 11 26 6 14 1009.6 1008.6 0.0
19/02:00pm 35.4 36.3 17.6 35 11.6 SE 9 17 5 9 1010.0 1009.1 0.0
19/01:30pm 34.6 34.9 16.9 35 11.4 ESE 11 22 6 12 1010.7 1009.8 0.0
19/01:00pm 35.0 34.6 18.1 36 11.0 ESE 17 26 9 14 1011.1 1010.2 0.0
19/12:30pm 34.0 33.6 18.1 39 10.4 ESE 17 24 9 13 1011.6 1010.7 0.0
19/12:00pm 33.8 33.5 19.1 42 9.7 SE 19 26 10 14 1012.1 1011.2 0.0
19/11:30am 32.8 33.1 19.7 46 8.7 SSE 17 28 9 15 1012.5 1011.6 0.0
19/11:00am 32.3 32.6 19.5 46 8.5 SE 17 30 9 16 1012.8 1011.9 0.0
19/10:30am 30.7 31.0 20.3 53 6.9 SSE 19 30 10 16 1013.1 1012.2 0.0
19/10:00am 29.8 30.1 20.4 57 6.2 SE 19 30 10 16 1013.3 1012.4 0.0
19/09:30am 29.0 29.1 20.4 59 5.7 SSE 20 28 11 15 1013.3 1012.4 0.0
19/09:00am 28.2 28.1 20.0 61 5.4 SSE 20 28 11 15 1013.3 1012.4 16.4
19/08:30am 27.2 27.1 20.0 64 4.7 SSE 20 26 11 14 1013.3 1012.4 16.2
19/08:00am 26.0 25.5 19.9 69 4.0 SSE 22 28 12 15 1013.3 1012.4 16.2
19/07:30am 25.1 25.2 19.9 73 3.4 S 19 26 10 14 1013.0 1012.1 16.2
19/07:00am 23.3 24.3 20.2 83 2.0 S 15 20 8 11 1012.5 1011.6 16.2
19/06:30am 21.8 23.4 19.9 89 1.2 SSW 11 13 6 7 1012.2 1011.3 16.2
19/06:00am 21.1 22.6 19.7 92 0.9 SSW 11 13 6 7 1011.6 1010.7 16.2
19/05:30am 21.1 23.1 19.9 93 0.8 SSW 9 13 5 7 1011.2 1010.3 16.2
19/05:00am 21.3 22.6 20.1 93 0.8 SSW 13 15 7 8 1010.5 1009.6 16.2
19/04:30am 21.2 22.4 20.0 93 0.8 SSW 13 15 7 8 1010.2 1009.3 16.2
19/04:00am 21.0 22.9 19.8 93 0.8 SSW 9 11 5 6 1009.9 1009.0 16.2
19/03:30am 21.4 22.9 19.7 90 1.1 S 11 15 6 8 1010.1 1009.2 16.2
19/03:00am 21.3 23.8 19.8 91 1.0 SE 6 7 3 4 1010.0 1009.1 16.2
19/02:30am 21.2 24.0 19.7 91 1.0 SSW 4 6 2 3 1010.3 1009.4 16.2
19/02:00am 21.6 23.9 19.9 90 1.1 S 7 9 4 5 1010.7 1009.8 16.2
19/01:30am 21.6 23.7 20.1 91 1.0 SSW 9 11 5 6 1011.2 1010.3 16.2
19/01:00am 21.7 24.2 20.3 92 0.9 SSW 7 9 4 5 1011.5 1010.6 16.2
19/12:30am 21.9 25.7 20.2 90 1.1 CALM 0 0 0 0 1012.2 1011.3 16.2
19/12:00am 22.2 25.7 20.3 89 1.2 WSW 2 4 1 2 1012.8 1011.9 16.2
 
Date/Time
EST
Temp
°C
App
Temp
°C
Dew
Point
Rel
Hum
%
Delta-T
°C
Wind Press
QNH
hPa
Press
MSL
hPa
Rain
since 9 am
mm
Dir
 
Spd
km/h
Gust
km/h
Spd
kts
Gust
kts
18/11:30pm 22.6 25.1 20.3 87 1.5 SSW 7 9 4 5 1013.3 1012.4 16.2
18/11:00pm 23.3 26.0 20.2 83 2.0 SSE 6 7 3 4 1013.2 1012.3 16.2
18/10:30pm 23.5 25.6 20.2 82 2.1 SE 9 11 5 6 1012.8 1011.9 16.2
18/10:00pm 24.2 26.3 20.1 78 2.7 E 9 15 5 8 1012.8 1011.9 16.2
18/09:30pm 24.2 25.7 19.7 76 2.9 NE 11 15 6 8 1012.7 1011.8 16.2
18/09:00pm 24.2 25.8 19.9 77 2.8 ENE 11 15 6 8 1012.6 1011.7 16.2
18/08:30pm 24.5 26.7 20.4 78 2.7 ENE 9 13 5 7 1012.6 1011.7 16.2
18/08:00pm 24.5 26.6 20.2 77 2.8 ESE 9 13 5 7 1012.2 1011.3 16.2
18/07:30pm 25.1 25.5 19.9 73 3.4 SSE 17 22 9 12 1011.9 1011.0 16.2
18/07:00pm 25.6 25.9 20.4 73 3.4 SSE 19 24 10 13 1011.6 1010.7 16.2
18/06:30pm 25.9 25.8 20.0 70 3.9 SSE 20 28 11 15 1011.5 1010.6 16.2
18/06:00pm 26.0 23.8 19.6 68 4.2 SSE 30 37 16 20 1010.9 1010.0 16.2
18/05:30pm 26.4 24.1 20.5 70 3.9 S 33 43 18 23 1010.6 1009.7 16.2
18/05:00pm 25.5 21.5 20.1 72 3.5 S 41 50 22 27 1010.0 1009.1 16.2
18/04:30pm 24.2 21.0 20.3 79 2.5 S 37 48 20 26 1009.9 1009.0 16.2
18/04:00pm 24.2 20.2 20.1 78 2.7 SSW 41 57 22 31 1009.5 1008.5 16.2
18/03:30pm 24.2 23.3 22.1 88 1.4 SSW 30 39 16 21 1009.4 1008.4 16.2
18/03:00pm 23.2 20.5 21.3 89 1.3 S 37 48 20 26 1009.6 1008.6 16.2
18/02:30pm 22.8 19.4 22.0 95 0.5 SSW 43 59 23 32 1010.1 1009.2 16.2
18/02:05pm 23.4 17.7 22.4 94 0.7 SW 56 74 30 40 1010.7 1009.8 9.6
18/02:00pm 23.4 17.0 22.2 93 0.8 SSW 59 74 32 40 1010.4 1009.5 9.0
18/01:44pm 23.2 16.0 21.3 89 1.3 SSW 61 83 33 45 1009.6 1008.6 3.2
18/01:30pm 28.3 19.0 20.1 61 5.4 SSW 69 91 37 49 1009.0 1008.0 0.0
18/01:22pm 30.3 24.9 18.4 49 7.7 W 44 83 24 45 1009.5 1008.5 0.0
18/01:20pm 32.3 27.4 17.4 41 9.6 W 39 80 21 43 1009.3 1008.3 0.0
18/01:19pm 37.5 33.7 18.0 31 12.8 WNW 35 80 19 43 1009.3 1008.3 0.0
18/01:00pm 40.9 38.0 18.8 27 14.8 NW 32 44 17 24 1008.2 1007.2 0.0
18/12:30pm 39.7 36.9 18.3 28 14.2 NW 30 44 16 24 1008.3 1007.3 0.0
18/12:00pm 39.4 38.9 21.5 35 12.4 NNW 26 39 14 21 1008.4 1007.4 0.0
18/11:30am 38.7 38.3 20.9 35 12.2 NNW 24 33 13 18 1008.8 1007.8 0.0
18/11:00am 37.4 37.5 21.9 40 10.7 NNW 24 33 13 18 1009.1 1008.1 0.0
18/10:30am 35.6 36.6 22.9 48 8.8 NNW 22 32 12 17 1009.4 1008.4 0.0
18/10:00am 34.4 35.0 22.8 51 8.0 NNW 24 35 13 19 1009.7 1008.7 0.0
18/09:30am 33.8 34.6 23.2 54 7.4 NNW 24 35 13 19 1009.8 1008.9 0.0

Other Formats:

Comma delimited format used in spreadsheet applications
http://www.bom.gov.au/fwo/IDQ60801/IDQ60801.94337.axf

JavaScript Object Notation format (JSON) in row-major order
http://www.bom.gov.au/fwo/IDQ60801/IDQ60801.94337.json